sensor_id;sensor_type;location;lat;lon;timestamp;P1;durP1;ratioP1;P2;durP2;ratioP2
67092;SDS011;54011;50.772;7.730;2023-04-25T00:00:27;11.15;;;3.92;;
67092;SDS011;54011;50.772;7.730;2023-04-25T00:02:54;9.70;;;3.63;;
67092;SDS011;54011;50.772;7.730;2023-04-25T00:05:25;7.90;;;3.05;;
67092;SDS011;54011;50.772;7.730;2023-04-25T00:07:52;10.55;;;3.60;;
67092;SDS011;54011;50.772;7.730;2023-04-25T00:10:19;10.30;;;3.42;;
67092;SDS011;54011;50.772;7.730;2023-04-25T00:12:45;7.93;;;3.13;;
67092;SDS011;54011;50.772;7.730;2023-04-25T00:15:11;12.85;;;3.72;;
67092;SDS011;54011;50.772;7.730;2023-04-25T00:17:37;13.00;;;3.90;;
67092;SDS011;54011;50.772;7.730;2023-04-25T00:20:03;8.50;;;3.17;;
67092;SDS011;54011;50.772;7.730;2023-04-25T00:22:36;9.82;;;3.38;;
67092;SDS011;54011;50.772;7.730;2023-04-25T00:25:05;10.82;;;3.33;;
67092;SDS011;54011;50.772;7.730;2023-04-25T00:27:32;6.68;;;3.10;;
67092;SDS011;54011;50.772;7.730;2023-04-25T00:29:59;9.30;;;3.45;;
67092;SDS011;54011;50.772;7.730;2023-04-25T00:32:27;9.48;;;3.08;;
67092;SDS011;54011;50.772;7.730;2023-04-25T00:34:52;16.67;;;3.75;;
67092;SDS011;54011;50.772;7.730;2023-04-25T00:37:18;9.90;;;3.80;;
67092;SDS011;54011;50.772;7.730;2023-04-25T00:39:44;14.57;;;3.55;;
67092;SDS011;54011;50.772;7.730;2023-04-25T00:42:12;11.02;;;3.67;;
67092;SDS011;54011;50.772;7.730;2023-04-25T00:44:37;9.73;;;3.50;;
67092;SDS011;54011;50.772;7.730;2023-04-25T00:47:03;13.80;;;3.97;;
67092;SDS011;54011;50.772;7.730;2023-04-25T00:49:30;5.88;;;2.72;;
67092;SDS011;54011;50.772;7.730;2023-04-25T00:51:56;9.52;;;3.47;;
67092;SDS011;54011;50.772;7.730;2023-04-25T00:54:21;12.45;;;4.40;;
67092;SDS011;54011;50.772;7.730;2023-04-25T00:56:48;8.25;;;3.92;;
67092;SDS011;54011;50.772;7.730;2023-04-25T00:59:14;14.85;;;3.92;;
67092;SDS011;54011;50.772;7.730;2023-04-25T01:01:40;15.98;;;3.88;;
67092;SDS011;54011;50.772;7.730;2023-04-25T01:04:06;10.88;;;4.15;;
67092;SDS011;54011;50.772;7.730;2023-04-25T01:06:32;11.00;;;4.20;;
67092;SDS011;54011;50.772;7.730;2023-04-25T01:08:58;10.18;;;4.60;;
67092;SDS011;54011;50.772;7.730;2023-04-25T01:11:30;13.57;;;4.30;;
67092;SDS011;54011;50.772;7.730;2023-04-25T01:13:57;11.80;;;4.40;;
67092;SDS011;54011;50.772;7.730;2023-04-25T01:16:23;10.57;;;4.38;;
67092;SDS011;54011;50.772;7.730;2023-04-25T01:18:49;11.02;;;4.68;;
67092;SDS011;54011;50.772;7.730;2023-04-25T01:21:16;11.05;;;3.88;;
67092;SDS011;54011;50.772;7.730;2023-04-25T01:23:45;18.20;;;4.57;;
67092;SDS011;54011;50.772;7.730;2023-04-25T01:26:12;10.55;;;3.63;;
67092;SDS011;54011;50.772;7.730;2023-04-25T01:28:39;13.77;;;3.88;;
67092;SDS011;54011;50.772;7.730;2023-04-25T01:31:11;11.77;;;4.43;;
67092;SDS011;54011;50.772;7.730;2023-04-25T01:33:38;12.02;;;4.85;;
67092;SDS011;54011;50.772;7.730;2023-04-25T01:36:04;18.42;;;4.18;;
67092;SDS011;54011;50.772;7.730;2023-04-25T01:38:30;11.48;;;4.10;;
67092;SDS011;54011;50.772;7.730;2023-04-25T01:40:59;14.43;;;5.35;;
67092;SDS011;54011;50.772;7.730;2023-04-25T01:43:26;10.73;;;3.50;;
67092;SDS011;54011;50.772;7.730;2023-04-25T01:45:52;16.50;;;4.57;;
67092;SDS011;54011;50.772;7.730;2023-04-25T01:48:19;12.98;;;4.20;;
67092;SDS011;54011;50.772;7.730;2023-04-25T01:50:46;13.93;;;4.32;;
67092;SDS011;54011;50.772;7.730;2023-04-25T01:53:12;15.85;;;5.60;;
67092;SDS011;54011;50.772;7.730;2023-04-25T01:55:38;11.55;;;4.60;;
67092;SDS011;54011;50.772;7.730;2023-04-25T01:58:08;12.95;;;4.47;;
67092;SDS011;54011;50.772;7.730;2023-04-25T02:00:56;17.05;;;5.13;;
67092;SDS011;54011;50.772;7.730;2023-04-25T02:03:25;11.50;;;5.25;;
67092;SDS011;54011;50.772;7.730;2023-04-25T02:05:52;13.18;;;5.28;;
67092;SDS011;54011;50.772;7.730;2023-04-25T02:08:18;15.02;;;5.50;;
67092;SDS011;54011;50.772;7.730;2023-04-25T02:10:43;15.35;;;5.65;;
67092;SDS011;54011;50.772;7.730;2023-04-25T02:13:15;14.20;;;5.63;;
67092;SDS011;54011;50.772;7.730;2023-04-25T02:15:59;9.68;;;5.45;;
67092;SDS011;54011;50.772;7.730;2023-04-25T02:18:24;15.70;;;5.95;;
67092;SDS011;54011;50.772;7.730;2023-04-25T02:20:53;19.15;;;5.40;;
67092;SDS011;54011;50.772;7.730;2023-04-25T02:23:19;12.02;;;5.63;;
67092;SDS011;54011;50.772;7.730;2023-04-25T02:25:45;15.13;;;5.28;;
67092;SDS011;54011;50.772;7.730;2023-04-25T02:28:13;11.77;;;4.72;;
67092;SDS011;54011;50.772;7.730;2023-04-25T02:30:38;11.02;;;5.65;;
67092;SDS011;54011;50.772;7.730;2023-04-25T02:33:04;12.30;;;4.97;;
67092;SDS011;54011;50.772;7.730;2023-04-25T02:35:30;19.25;;;5.50;;
67092;SDS011;54011;50.772;7.730;2023-04-25T02:37:55;12.73;;;5.60;;
67092;SDS011;54011;50.772;7.730;2023-04-25T02:40:23;14.68;;;5.35;;
67092;SDS011;54011;50.772;7.730;2023-04-25T02:42:49;13.45;;;4.90;;
67092;SDS011;54011;50.772;7.730;2023-04-25T02:45:16;15.95;;;5.75;;
67092;SDS011;54011;50.772;7.730;2023-04-25T02:47:43;11.82;;;3.90;;
67092;SDS011;54011;50.772;7.730;2023-04-25T02:50:10;15.35;;;5.20;;
67092;SDS011;54011;50.772;7.730;2023-04-25T02:52:36;21.17;;;5.68;;
67092;SDS011;54011;50.772;7.730;2023-04-25T02:55:10;16.60;;;5.55;;
67092;SDS011;54011;50.772;7.730;2023-04-25T02:57:37;14.13;;;5.22;;
67092;SDS011;54011;50.772;7.730;2023-04-25T03:00:03;12.30;;;5.32;;
67092;SDS011;54011;50.772;7.730;2023-04-25T03:02:30;12.10;;;4.40;;
67092;SDS011;54011;50.772;7.730;2023-04-25T03:04:56;14.75;;;5.10;;
67092;SDS011;54011;50.772;7.730;2023-04-25T03:07:23;15.10;;;5.85;;
67092;SDS011;54011;50.772;7.730;2023-04-25T03:09:48;14.75;;;5.93;;
67092;SDS011;54011;50.772;7.730;2023-04-25T03:12:14;23.63;;;5.90;;
67092;SDS011;54011;50.772;7.730;2023-04-25T03:14:41;16.83;;;5.53;;
67092;SDS011;54011;50.772;7.730;2023-04-25T03:17:08;17.00;;;5.70;;
67092;SDS011;54011;50.772;7.730;2023-04-25T03:19:34;14.55;;;5.60;;
67092;SDS011;54011;50.772;7.730;2023-04-25T03:22:00;11.98;;;5.30;;
67092;SDS011;54011;50.772;7.730;2023-04-25T03:24:26;22.27;;;6.90;;
67092;SDS011;54011;50.772;7.730;2023-04-25T03:26:52;15.68;;;5.57;;
67092;SDS011;54011;50.772;7.730;2023-04-25T03:29:18;17.52;;;6.57;;
67092;SDS011;54011;50.772;7.730;2023-04-25T03:31:45;15.15;;;5.32;;
67092;SDS011;54011;50.772;7.730;2023-04-25T03:34:12;18.42;;;5.43;;
67092;SDS011;54011;50.772;7.730;2023-04-25T03:36:40;22.48;;;5.82;;
67092;SDS011;54011;50.772;7.730;2023-04-25T03:39:06;16.10;;;5.43;;
67092;SDS011;54011;50.772;7.730;2023-04-25T03:41:36;16.40;;;5.80;;
67092;SDS011;54011;50.772;7.730;2023-04-25T03:44:07;14.10;;;5.53;;
67092;SDS011;54011;50.772;7.730;2023-04-25T03:46:34;18.33;;;6.07;;
67092;SDS011;54011;50.772;7.730;2023-04-25T03:49:00;15.63;;;5.65;;
67092;SDS011;54011;50.772;7.730;2023-04-25T03:51:39;19.10;;;5.88;;
67092;SDS011;54011;50.772;7.730;2023-04-25T03:54:04;18.85;;;5.80;;
67092;SDS011;54011;50.772;7.730;2023-04-25T03:56:39;29.05;;;6.72;;
67092;SDS011;54011;50.772;7.730;2023-04-25T03:59:14;15.25;;;5.88;;
67092;SDS011;54011;50.772;7.730;2023-04-25T04:01:40;20.33;;;6.18;;
67092;SDS011;54011;50.772;7.730;2023-04-25T04:04:06;14.68;;;5.88;;
67092;SDS011;54011;50.772;7.730;2023-04-25T04:06:33;14.98;;;6.10;;
67092;SDS011;54011;50.772;7.730;2023-04-25T04:09:09;13.57;;;5.97;;
67092;SDS011;54011;50.772;7.730;2023-04-25T04:11:38;18.50;;;5.32;;
67092;SDS011;54011;50.772;7.730;2023-04-25T04:14:05;12.63;;;5.90;;
67092;SDS011;54011;50.772;7.730;2023-04-25T04:16:31;18.92;;;6.20;;
67092;SDS011;54011;50.772;7.730;2023-04-25T04:18:58;19.38;;;6.03;;
67092;SDS011;54011;50.772;7.730;2023-04-25T04:21:24;15.32;;;5.70;;
67092;SDS011;54011;50.772;7.730;2023-04-25T04:23:59;15.63;;;6.15;;
67092;SDS011;54011;50.772;7.730;2023-04-25T04:26:32;19.90;;;6.38;;
67092;SDS011;54011;50.772;7.730;2023-04-25T04:29:21;23.50;;;7.15;;
67092;SDS011;54011;50.772;7.730;2023-04-25T04:31:59;22.17;;;6.28;;
67092;SDS011;54011;50.772;7.730;2023-04-25T04:34:26;23.58;;;7.05;;
67092;SDS011;54011;50.772;7.730;2023-04-25T04:36:52;24.13;;;6.93;;
67092;SDS011;54011;50.772;7.730;2023-04-25T04:39:18;17.08;;;6.38;;
67092;SDS011;54011;50.772;7.730;2023-04-25T04:41:58;19.17;;;6.18;;
67092;SDS011;54011;50.772;7.730;2023-04-25T04:44:44;15.18;;;5.10;;
67092;SDS011;54011;50.772;7.730;2023-04-25T04:47:23;19.02;;;5.70;;
67092;SDS011;54011;50.772;7.730;2023-04-25T04:50:02;15.45;;;5.53;;
67092;SDS011;54011;50.772;7.730;2023-04-25T04:52:38;20.33;;;6.03;;
67092;SDS011;54011;50.772;7.730;2023-04-25T04:55:31;15.43;;;5.82;;
67092;SDS011;54011;50.772;7.730;2023-04-25T04:58:21;14.37;;;5.70;;
67092;SDS011;54011;50.772;7.730;2023-04-25T05:01:17;14.30;;;5.53;;
67092;SDS011;54011;50.772;7.730;2023-04-25T05:04:03;9.70;;;4.65;;
67092;SDS011;54011;50.772;7.730;2023-04-25T05:07:00;17.55;;;5.65;;
67092;SDS011;54011;50.772;7.730;2023-04-25T05:09:45;15.10;;;4.65;;
67092;SDS011;54011;50.772;7.730;2023-04-25T05:12:29;15.73;;;5.63;;
67092;SDS011;54011;50.772;7.730;2023-04-25T05:15:06;12.88;;;5.50;;
67092;SDS011;54011;50.772;7.730;2023-04-25T05:17:41;15.77;;;5.80;;
67092;SDS011;54011;50.772;7.730;2023-04-25T05:20:34;21.05;;;5.95;;
67092;SDS011;54011;50.772;7.730;2023-04-25T05:23:12;12.90;;;4.72;;
67092;SDS011;54011;50.772;7.730;2023-04-25T05:26:04;17.20;;;5.15;;
67092;SDS011;54011;50.772;7.730;2023-04-25T05:29:03;11.25;;;4.82;;
67092;SDS011;54011;50.772;7.730;2023-04-25T05:31:53;13.88;;;4.35;;
67092;SDS011;54011;50.772;7.730;2023-04-25T05:34:18;20.80;;;5.75;;
67092;SDS011;54011;50.772;7.730;2023-04-25T05:36:56;14.25;;;5.35;;
67092;SDS011;54011;50.772;7.730;2023-04-25T05:39:21;14.95;;;5.38;;
67092;SDS011;54011;50.772;7.730;2023-04-25T05:42:09;10.48;;;3.90;;
67092;SDS011;54011;50.772;7.730;2023-04-25T05:44:54;13.30;;;6.00;;
67092;SDS011;54011;50.772;7.730;2023-04-25T05:47:30;15.27;;;5.38;;
67092;SDS011;54011;50.772;7.730;2023-04-25T05:50:04;14.40;;;4.60;;
67092;SDS011;54011;50.772;7.730;2023-04-25T05:52:50;14.02;;;5.25;;
67092;SDS011;54011;50.772;7.730;2023-04-25T05:55:34;9.68;;;4.28;;
67092;SDS011;54011;50.772;7.730;2023-04-25T05:58:10;16.13;;;5.43;;
67092;SDS011;54011;50.772;7.730;2023-04-25T06:00:36;11.75;;;4.38;;
67092;SDS011;54011;50.772;7.730;2023-04-25T06:03:01;15.75;;;5.55;;
67092;SDS011;54011;50.772;7.730;2023-04-25T06:05:28;13.88;;;5.60;;
67092;SDS011;54011;50.772;7.730;2023-04-25T06:07:54;10.45;;;4.60;;
67092;SDS011;54011;50.772;7.730;2023-04-25T06:10:20;21.55;;;5.57;;
67092;SDS011;54011;50.772;7.730;2023-04-25T06:12:49;17.98;;;5.30;;
67092;SDS011;54011;50.772;7.730;2023-04-25T06:15:18;18.08;;;5.10;;
67092;SDS011;54011;50.772;7.730;2023-04-25T06:17:46;8.93;;;4.13;;
67092;SDS011;54011;50.772;7.730;2023-04-25T06:20:12;14.20;;;5.13;;
67092;SDS011;54011;50.772;7.730;2023-04-25T06:22:39;12.20;;;3.55;;
67092;SDS011;54011;50.772;7.730;2023-04-25T06:25:05;15.75;;;5.72;;
67092;SDS011;54011;50.772;7.730;2023-04-25T06:27:33;21.27;;;5.75;;
67092;SDS011;54011;50.772;7.730;2023-04-25T06:29:59;18.88;;;5.68;;
67092;SDS011;54011;50.772;7.730;2023-04-25T06:32:25;20.52;;;6.53;;
67092;SDS011;54011;50.772;7.730;2023-04-25T06:34:53;14.63;;;5.72;;
67092;SDS011;54011;50.772;7.730;2023-04-25T06:37:18;16.45;;;6.05;;
67092;SDS011;54011;50.772;7.730;2023-04-25T06:39:44;13.85;;;4.28;;
67092;SDS011;54011;50.772;7.730;2023-04-25T06:42:10;15.95;;;6.20;;
67092;SDS011;54011;50.772;7.730;2023-04-25T06:44:40;8.52;;;4.13;;
67092;SDS011;54011;50.772;7.730;2023-04-25T06:47:07;17.52;;;6.05;;
67092;SDS011;54011;50.772;7.730;2023-04-25T06:49:34;16.55;;;5.35;;
67092;SDS011;54011;50.772;7.730;2023-04-25T06:52:00;17.08;;;6.28;;
67092;SDS011;54011;50.772;7.730;2023-04-25T06:54:25;16.40;;;7.05;;
67092;SDS011;54011;50.772;7.730;2023-04-25T06:57:00;14.77;;;5.72;;
67092;SDS011;54011;50.772;7.730;2023-04-25T06:59:27;18.65;;;6.93;;
67092;SDS011;54011;50.772;7.730;2023-04-25T07:01:52;15.10;;;6.63;;
67092;SDS011;54011;50.772;7.730;2023-04-25T07:04:26;19.77;;;6.78;;
67092;SDS011;54011;50.772;7.730;2023-04-25T07:06:54;20.17;;;7.45;;
67092;SDS011;54011;50.772;7.730;2023-04-25T07:09:27;21.45;;;5.55;;
67092;SDS011;54011;50.772;7.730;2023-04-25T07:11:53;18.05;;;6.78;;
67092;SDS011;54011;50.772;7.730;2023-04-25T07:14:19;11.60;;;4.53;;
67092;SDS011;54011;50.772;7.730;2023-04-25T07:16:45;17.42;;;6.57;;
67092;SDS011;54011;50.772;7.730;2023-04-25T07:19:12;17.50;;;5.65;;
67092;SDS011;54011;50.772;7.730;2023-04-25T07:21:41;19.35;;;6.60;;
67092;SDS011;54011;50.772;7.730;2023-04-25T07:24:07;17.58;;;5.88;;
67092;SDS011;54011;50.772;7.730;2023-04-25T07:26:36;21.13;;;5.97;;
67092;SDS011;54011;50.772;7.730;2023-04-25T07:29:15;14.15;;;5.20;;
67092;SDS011;54011;50.772;7.730;2023-04-25T07:31:44;11.80;;;5.57;;
67092;SDS011;54011;50.772;7.730;2023-04-25T07:34:10;12.30;;;3.50;;
67092;SDS011;54011;50.772;7.730;2023-04-25T07:36:37;13.73;;;4.85;;
67092;SDS011;54011;50.772;7.730;2023-04-25T07:39:06;18.45;;;5.25;;
67092;SDS011;54011;50.772;7.730;2023-04-25T07:41:32;21.95;;;5.25;;
67092;SDS011;54011;50.772;7.730;2023-04-25T07:43:58;12.07;;;3.30;;
67092;SDS011;54011;50.772;7.730;2023-04-25T07:46:24;15.95;;;4.50;;
67092;SDS011;54011;50.772;7.730;2023-04-25T07:48:51;12.23;;;4.07;;
67092;SDS011;54011;50.772;7.730;2023-04-25T07:51:18;11.50;;;4.05;;
67092;SDS011;54011;50.772;7.730;2023-04-25T07:53:45;13.20;;;4.32;;
67092;SDS011;54011;50.772;7.730;2023-04-25T07:56:14;13.68;;;4.22;;
67092;SDS011;54011;50.772;7.730;2023-04-25T07:58:43;14.18;;;4.15;;
67092;SDS011;54011;50.772;7.730;2023-04-25T08:01:13;11.50;;;4.17;;
67092;SDS011;54011;50.772;7.730;2023-04-25T08:03:46;14.95;;;4.28;;
67092;SDS011;54011;50.772;7.730;2023-04-25T08:06:22;11.80;;;4.20;;
67092;SDS011;54011;50.772;7.730;2023-04-25T08:08:56;15.32;;;4.10;;
67092;SDS011;54011;50.772;7.730;2023-04-25T08:11:28;10.43;;;3.58;;
67092;SDS011;54011;50.772;7.730;2023-04-25T08:13:56;12.57;;;3.33;;
67092;SDS011;54011;50.772;7.730;2023-04-25T08:16:22;16.05;;;3.90;;
67092;SDS011;54011;50.772;7.730;2023-04-25T08:18:47;16.40;;;4.53;;
67092;SDS011;54011;50.772;7.730;2023-04-25T08:21:14;9.55;;;3.50;;
67092;SDS011;54011;50.772;7.730;2023-04-25T08:23:40;12.13;;;3.67;;
67092;SDS011;54011;50.772;7.730;2023-04-25T08:26:20;11.85;;;3.92;;
67092;SDS011;54011;50.772;7.730;2023-04-25T08:28:49;7.95;;;3.33;;
67092;SDS011;54011;50.772;7.730;2023-04-25T08:31:15;10.73;;;3.58;;
67092;SDS011;54011;50.772;7.730;2023-04-25T08:33:54;9.95;;;3.17;;
67092;SDS011;54011;50.772;7.730;2023-04-25T08:36:36;11.30;;;3.50;;
67092;SDS011;54011;50.772;7.730;2023-04-25T08:39:02;11.43;;;3.67;;
67092;SDS011;54011;50.772;7.730;2023-04-25T08:41:30;12.20;;;3.30;;
67092;SDS011;54011;50.772;7.730;2023-04-25T08:43:58;12.05;;;3.22;;
67092;SDS011;54011;50.772;7.730;2023-04-25T08:46:25;14.82;;;3.45;;
67092;SDS011;54011;50.772;7.730;2023-04-25T08:49:12;16.77;;;3.35;;
67092;SDS011;54011;50.772;7.730;2023-04-25T08:51:44;9.07;;;3.33;;
67092;SDS011;54011;50.772;7.730;2023-04-25T08:54:17;13.90;;;3.75;;
67092;SDS011;54011;50.772;7.730;2023-04-25T08:56:47;11.90;;;3.45;;
67092;SDS011;54011;50.772;7.730;2023-04-25T08:59:13;11.32;;;3.10;;
67092;SDS011;54011;50.772;7.730;2023-04-25T09:01:40;9.07;;;3.40;;
67092;SDS011;54011;50.772;7.730;2023-04-25T09:04:05;11.35;;;3.60;;
67092;SDS011;54011;50.772;7.730;2023-04-25T09:06:32;11.20;;;3.60;;
67092;SDS011;54011;50.772;7.730;2023-04-25T09:09:04;11.68;;;3.20;;
67092;SDS011;54011;50.772;7.730;2023-04-25T09:11:31;7.40;;;3.17;;
67092;SDS011;54011;50.772;7.730;2023-04-25T09:17:06;11.80;;;3.05;;
67092;SDS011;54011;50.772;7.730;2023-04-25T09:19:43;6.10;;;2.20;;
67092;SDS011;54011;50.772;7.730;2023-04-25T09:22:18;6.60;;;2.17;;
67092;SDS011;54011;50.772;7.730;2023-04-25T09:24:47;9.60;;;2.50;;
67092;SDS011;54011;50.772;7.730;2023-04-25T09:27:20;8.32;;;2.10;;
67092;SDS011;54011;50.772;7.730;2023-04-25T09:30:16;4.13;;;1.33;;
67092;SDS011;54011;50.772;7.730;2023-04-25T09:33:05;10.35;;;2.30;;
67092;SDS011;54011;50.772;7.730;2023-04-25T09:35:36;7.72;;;1.90;;
67092;SDS011;54011;50.772;7.730;2023-04-25T09:38:09;3.17;;;1.38;;
67092;SDS011;54011;50.772;7.730;2023-04-25T09:40:55;6.05;;;1.67;;
67092;SDS011;54011;50.772;7.730;2023-04-25T09:43:33;6.18;;;1.45;;
67092;SDS011;54011;50.772;7.730;2023-04-25T09:45:58;12.82;;;2.78;;
67092;SDS011;54011;50.772;7.730;2023-04-25T09:48:26;4.97;;;1.63;;
67092;SDS011;54011;50.772;7.730;2023-04-25T09:51:08;4.55;;;1.08;;
67092;SDS011;54011;50.772;7.730;2023-04-25T09:53:43;9.55;;;2.20;;
67092;SDS011;54011;50.772;7.730;2023-04-25T09:56:27;11.75;;;2.78;;
67092;SDS011;54011;50.772;7.730;2023-04-25T09:58:59;10.13;;;2.60;;
67092;SDS011;54011;50.772;7.730;2023-04-25T10:01:27;9.40;;;2.17;;
67092;SDS011;54011;50.772;7.730;2023-04-25T10:04:05;6.65;;;2.10;;
67092;SDS011;54011;50.772;7.730;2023-04-25T10:06:55;10.45;;;2.30;;
67092;SDS011;54011;50.772;7.730;2023-04-25T10:09:23;10.23;;;2.80;;
67092;SDS011;54011;50.772;7.730;2023-04-25T10:11:51;12.00;;;3.03;;
67092;SDS011;54011;50.772;7.730;2023-04-25T10:14:20;10.63;;;1.92;;
67092;SDS011;54011;50.772;7.730;2023-04-25T10:16:47;10.27;;;2.55;;
67092;SDS011;54011;50.772;7.730;2023-04-25T10:19:13;11.57;;;3.05;;
67092;SDS011;54011;50.772;7.730;2023-04-25T10:24:42;4.70;;;1.40;;
67092;SDS011;54011;50.772;7.730;2023-04-25T10:27:08;9.55;;;2.42;;
67092;SDS011;54011;50.772;7.730;2023-04-25T10:29:39;10.43;;;2.50;;
67092;SDS011;54011;50.772;7.730;2023-04-25T10:32:09;7.15;;;2.30;;
67092;SDS011;54011;50.772;7.730;2023-04-25T10:34:41;11.10;;;2.90;;
67092;SDS011;54011;50.772;7.730;2023-04-25T10:37:09;6.72;;;2.50;;
67092;SDS011;54011;50.772;7.730;2023-04-25T10:39:36;5.38;;;1.70;;
67092;SDS011;54011;50.772;7.730;2023-04-25T10:42:08;8.38;;;2.47;;
67092;SDS011;54011;50.772;7.730;2023-04-25T10:44:38;9.93;;;2.05;;
67092;SDS011;54011;50.772;7.730;2023-04-25T10:47:06;12.15;;;2.30;;
67092;SDS011;54011;50.772;7.730;2023-04-25T10:49:34;8.38;;;2.30;;
67092;SDS011;54011;50.772;7.730;2023-04-25T10:54:47;6.40;;;2.53;;
67092;SDS011;54011;50.772;7.730;2023-04-25T10:59:57;10.30;;;2.10;;
67092;SDS011;54011;50.772;7.730;2023-04-25T11:02:28;7.65;;;2.38;;
67092;SDS011;54011;50.772;7.730;2023-04-25T11:04:55;8.52;;;2.35;;
67092;SDS011;54011;50.772;7.730;2023-04-25T11:07:34;9.60;;;2.65;;
67092;SDS011;54011;50.772;7.730;2023-04-25T11:10:05;8.02;;;2.60;;
67092;SDS011;54011;50.772;7.730;2023-04-25T11:12:31;6.20;;;1.95;;
67092;SDS011;54011;50.772;7.730;2023-04-25T11:15:04;16.83;;;1.85;;
67092;SDS011;54011;50.772;7.730;2023-04-25T11:17:31;6.00;;;2.03;;
67092;SDS011;54011;50.772;7.730;2023-04-25T11:20:00;6.03;;;2.25;;
67092;SDS011;54011;50.772;7.730;2023-04-25T11:22:27;9.77;;;2.60;;
67092;SDS011;54011;50.772;7.730;2023-04-25T11:24:53;12.20;;;2.83;;
67092;SDS011;54011;50.772;7.730;2023-04-25T11:27:21;7.18;;;2.05;;
67092;SDS011;54011;50.772;7.730;2023-04-25T11:29:46;8.57;;;2.80;;
67092;SDS011;54011;50.772;7.730;2023-04-25T11:32:17;7.27;;;2.13;;
67092;SDS011;54011;50.772;7.730;2023-04-25T11:34:43;7.68;;;2.08;;
67092;SDS011;54011;50.772;7.730;2023-04-25T11:37:10;12.50;;;2.38;;
67092;SDS011;54011;50.772;7.730;2023-04-25T11:39:37;7.65;;;2.20;;
67092;SDS011;54011;50.772;7.730;2023-04-25T11:42:04;8.68;;;2.28;;
67092;SDS011;54011;50.772;7.730;2023-04-25T11:44:30;10.32;;;2.40;;
67092;SDS011;54011;50.772;7.730;2023-04-25T11:46:56;8.68;;;1.90;;
67092;SDS011;54011;50.772;7.730;2023-04-25T11:49:21;5.30;;;1.83;;
67092;SDS011;54011;50.772;7.730;2023-04-25T11:51:48;7.10;;;2.05;;
67092;SDS011;54011;50.772;7.730;2023-04-25T11:54:15;8.10;;;2.25;;
67092;SDS011;54011;50.772;7.730;2023-04-25T11:56:41;5.60;;;1.67;;
67092;SDS011;54011;50.772;7.730;2023-04-25T11:59:07;7.97;;;2.22;;
67092;SDS011;54011;50.772;7.730;2023-04-25T12:01:35;6.47;;;1.33;;
67092;SDS011;54011;50.772;7.730;2023-04-25T12:04:12;9.02;;;2.25;;
67092;SDS011;54011;50.772;7.730;2023-04-25T12:06:44;10.60;;;2.67;;
67092;SDS011;54011;50.772;7.730;2023-04-25T12:09:14;9.85;;;2.40;;
67092;SDS011;54011;50.772;7.730;2023-04-25T12:11:47;5.40;;;2.20;;
67092;SDS011;54011;50.772;7.730;2023-04-25T12:16:50;7.63;;;2.38;;
67092;SDS011;54011;50.772;7.730;2023-04-25T12:19:18;9.30;;;2.55;;
67092;SDS011;54011;50.772;7.730;2023-04-25T12:21:45;8.30;;;2.45;;
67092;SDS011;54011;50.772;7.730;2023-04-25T12:26:51;6.22;;;2.05;;
67092;SDS011;54011;50.772;7.730;2023-04-25T12:29:19;5.78;;;2.10;;
67092;SDS011;54011;50.772;7.730;2023-04-25T12:31:48;10.55;;;2.42;;
67092;SDS011;54011;50.772;7.730;2023-04-25T12:34:15;6.90;;;2.10;;
67092;SDS011;54011;50.772;7.730;2023-04-25T12:36:42;6.30;;;1.90;;
67092;SDS011;54011;50.772;7.730;2023-04-25T12:39:14;6.88;;;2.40;;
67092;SDS011;54011;50.772;7.730;2023-04-25T12:41:43;11.00;;;2.35;;
67092;SDS011;54011;50.772;7.730;2023-04-25T12:44:09;4.55;;;1.33;;
67092;SDS011;54011;50.772;7.730;2023-04-25T12:46:37;7.82;;;2.00;;
67092;SDS011;54011;50.772;7.730;2023-04-25T12:49:04;6.80;;;1.88;;
67092;SDS011;54011;50.772;7.730;2023-04-25T12:51:32;5.72;;;1.70;;
67092;SDS011;54011;50.772;7.730;2023-04-25T12:54:13;3.33;;;1.17;;
67092;SDS011;54011;50.772;7.730;2023-04-25T12:56:40;4.78;;;1.77;;
67092;SDS011;54011;50.772;7.730;2023-04-25T12:59:06;4.72;;;1.33;;
67092;SDS011;54011;50.772;7.730;2023-04-25T13:01:31;5.32;;;1.83;;
67092;SDS011;54011;50.772;7.730;2023-04-25T13:03:57;8.95;;;2.17;;
67092;SDS011;54011;50.772;7.730;2023-04-25T13:06:24;9.18;;;1.85;;
67092;SDS011;54011;50.772;7.730;2023-04-25T13:08:49;8.60;;;1.77;;
67092;SDS011;54011;50.772;7.730;2023-04-25T13:11:18;7.45;;;2.33;;
67092;SDS011;54011;50.772;7.730;2023-04-25T13:13:44;6.90;;;1.90;;
67092;SDS011;54011;50.772;7.730;2023-04-25T13:16:10;9.00;;;2.08;;
67092;SDS011;54011;50.772;7.730;2023-04-25T13:18:38;11.70;;;2.42;;
67092;SDS011;54011;50.772;7.730;2023-04-25T13:21:03;4.60;;;1.58;;
67092;SDS011;54011;50.772;7.730;2023-04-25T13:23:30;6.95;;;1.77;;
67092;SDS011;54011;50.772;7.730;2023-04-25T13:25:57;9.68;;;2.17;;
67092;SDS011;54011;50.772;7.730;2023-04-25T13:28:23;10.13;;;1.80;;
67092;SDS011;54011;50.772;7.730;2023-04-25T13:30:49;4.85;;;1.30;;
67092;SDS011;54011;50.772;7.730;2023-04-25T13:33:15;10.40;;;1.40;;
67092;SDS011;54011;50.772;7.730;2023-04-25T13:35:41;4.03;;;1.30;;
67092;SDS011;54011;50.772;7.730;2023-04-25T13:38:07;7.45;;;1.70;;
67092;SDS011;54011;50.772;7.730;2023-04-25T13:40:35;4.03;;;1.20;;
67092;SDS011;54011;50.772;7.730;2023-04-25T13:43:01;8.05;;;1.80;;
67092;SDS011;54011;50.772;7.730;2023-04-25T13:45:29;3.78;;;0.95;;
67092;SDS011;54011;50.772;7.730;2023-04-25T13:47:54;5.53;;;1.25;;
67092;SDS011;54011;50.772;7.730;2023-04-25T13:50:20;4.40;;;1.17;;
67092;SDS011;54011;50.772;7.730;2023-04-25T13:52:45;4.05;;;1.40;;
67092;SDS011;54011;50.772;7.730;2023-04-25T13:55:12;6.07;;;1.48;;
67092;SDS011;54011;50.772;7.730;2023-04-25T13:57:37;5.22;;;1.55;;
67092;SDS011;54011;50.772;7.730;2023-04-25T14:00:04;9.88;;;1.67;;
67092;SDS011;54011;50.772;7.730;2023-04-25T14:02:34;6.00;;;1.58;;
67092;SDS011;54011;50.772;7.730;2023-04-25T14:05:01;6.82;;;1.90;;
67092;SDS011;54011;50.772;7.730;2023-04-25T14:07:29;11.43;;;2.10;;
67092;SDS011;54011;50.772;7.730;2023-04-25T14:09:55;9.35;;;1.95;;
67092;SDS011;54011;50.772;7.730;2023-04-25T14:12:22;9.23;;;2.53;;
67092;SDS011;54011;50.772;7.730;2023-04-25T14:14:49;6.05;;;1.45;;
67092;SDS011;54011;50.772;7.730;2023-04-25T14:17:14;7.00;;;1.95;;
67092;SDS011;54011;50.772;7.730;2023-04-25T14:19:40;8.85;;;1.40;;
67092;SDS011;54011;50.772;7.730;2023-04-25T14:22:08;5.45;;;1.25;;
67092;SDS011;54011;50.772;7.730;2023-04-25T14:24:35;7.35;;;1.50;;
67092;SDS011;54011;50.772;7.730;2023-04-25T14:27:01;6.60;;;1.60;;
67092;SDS011;54011;50.772;7.730;2023-04-25T14:29:27;5.40;;;1.50;;
67092;SDS011;54011;50.772;7.730;2023-04-25T14:31:53;4.43;;;1.52;;
67092;SDS011;54011;50.772;7.730;2023-04-25T14:34:19;7.20;;;1.67;;
67092;SDS011;54011;50.772;7.730;2023-04-25T14:36:45;4.95;;;1.50;;
67092;SDS011;54011;50.772;7.730;2023-04-25T14:39:12;6.00;;;1.42;;
67092;SDS011;54011;50.772;7.730;2023-04-25T14:41:39;5.97;;;1.80;;
67092;SDS011;54011;50.772;7.730;2023-04-25T14:44:04;5.32;;;1.60;;
67092;SDS011;54011;50.772;7.730;2023-04-25T14:46:31;6.13;;;2.03;;
67092;SDS011;54011;50.772;7.730;2023-04-25T14:48:56;5.78;;;1.65;;
67092;SDS011;54011;50.772;7.730;2023-04-25T14:51:22;4.32;;;1.60;;
67092;SDS011;54011;50.772;7.730;2023-04-25T14:53:48;4.95;;;1.52;;
67092;SDS011;54011;50.772;7.730;2023-04-25T14:56:14;5.88;;;1.70;;
67092;SDS011;54011;50.772;7.730;2023-04-25T14:58:40;4.20;;;1.50;;
67092;SDS011;54011;50.772;7.730;2023-04-25T15:01:08;6.50;;;1.60;;
67092;SDS011;54011;50.772;7.730;2023-04-25T15:03:34;6.13;;;1.75;;
67092;SDS011;54011;50.772;7.730;2023-04-25T15:06:01;7.22;;;1.90;;
67092;SDS011;54011;50.772;7.730;2023-04-25T15:08:27;5.47;;;1.70;;
67092;SDS011;54011;50.772;7.730;2023-04-25T15:10:53;7.88;;;1.63;;